Time;durP1;ratioP1;P1;durP2;ratioP2;P2;SDS_P1;SDS_P2;PMS_P1;PMS_P2;Temp;Humidity;BMP_temperature;BMP_pressure;BME280_temperature;BME280_humidity;BME280_pressure;Samples;Min_cycle;Max_cycle;Signal;HPM_P1;HPM_P2
2021/08/11 00:00:46;;;;;;;9.03;6.70;;;;;;;16.09;73.70;97306.13;1741593;81;25731;-86
2021/08/11 00:03:15;;;;;;;10.68;6.75;;;;;;;16.09;73.88;97303.41;1764613;80;25743;-87
2021/08/11 00:05:41;;;;;;;9.95;6.72;;;;;;;16.13;73.92;97306.47;1766028;81;26435;-89
2021/08/11 00:08:08;;;;;;;15.10;6.58;;;;;;;16.17;74.06;97298.09;1737248;81;25805;-88
2021/08/11 00:10:34;;;;;;;10.13;6.90;;;;;;;16.18;74.09;97303.27;1738309;81;27263;-89
2021/08/11 00:13:01;;;;;;;11.40;7.58;;;;;;;16.20;74.11;97303.84;1760124;79;25896;-89
2021/08/11 00:15:28;;;;;;;9.23;6.87;;;;;;;16.14;74.09;97298.05;1738812;81;25669;-88
2021/08/11 00:17:56;;;;;;;9.65;6.37;;;;;;;16.10;74.13;97302.34;1711647;81;26356;-87
2021/08/11 00:20:24;;;;;;;9.73;6.87;;;;;;;16.08;74.16;97294.95;1723896;82;25846;-87
2021/08/11 00:22:52;;;;;;;10.23;6.40;;;;;;;16.05;74.27;97290.02;1716117;82;27383;-84
2021/08/11 00:25:19;;;;;;;9.70;6.15;;;;;;;16.07;74.41;97293.30;1721514;82;25794;-81
2021/08/11 00:27:45;;;;;;;8.78;6.05;;;;;;;16.04;74.37;97288.91;1747098;82;25889;-87
2021/08/11 00:30:12;;;;;;;8.00;5.67;;;;;;;16.02;74.39;97293.23;1741634;82;26611;-86
2021/08/11 00:32:39;;;;;;;10.82;5.95;;;;;;;16.02;74.46;97290.52;1738330;81;25793;-86
2021/08/11 00:35:07;;;;;;;9.20;6.17;;;;;;;16.04;74.52;97284.29;1726267;82;27573;-87
2021/08/11 00:37:33;;;;;;;7.35;5.90;;;;;;;15.99;74.55;97281.47;1739569;82;25837;-88
2021/08/11 00:40:00;;;;;;;12.40;6.50;;;;;;;16.01;74.75;97279.33;1720423;82;26539;-88
2021/08/11 00:42:27;;;;;;;9.35;6.12;;;;;;;16.00;74.75;97280.41;1724377;81;25854;-86
2021/08/11 00:44:54;;;;;;;9.33;6.55;;;;;;;16.00;74.76;97278.22;1739060;81;25817;-87
2021/08/11 00:47:24;;;;;;;8.90;5.90;;;;;;;15.95;74.88;97258.53;1755249;81;28040;-85
2021/08/11 00:49:52;;;;;;;12.18;6.17;;;;;;;15.95;75.01;97247.64;1755182;81;25727;-86
2021/08/11 00:52:18;;;;;;;12.65;6.37;;;;;;;15.98;75.03;97259.94;1728867;81;25753;-87
2021/08/11 00:54:46;;;;;;;14.85;6.80;;;;;;;16.01;75.05;97261.64;1725164;81;26456;-86
2021/08/11 00:57:15;;;;;;;12.43;6.17;;;;;;;16.04;75.03;97258.96;1725104;81;26519;-88
2021/08/11 00:59:44;;;;;;;12.55;6.97;;;;;;;16.02;75.06;97257.02;1725071;81;28141;-87
2021/08/11 01:02:14;;;;;;;12.25;7.17;;;;;;;16.02;75.33;97264.65;1726515;81;25752;-85
2021/08/11 01:04:42;;;;;;;13.98;6.90;;;;;;;16.00;75.38;97261.34;1745886;81;25649;-87
2021/08/11 01:07:09;;;;;;;9.23;6.47;;;;;;;16.02;75.46;97266.02;1740058;81;25712;-88
2021/08/11 01:09:38;;;;;;;10.32;6.90;;;;;;;16.02;75.46;97281.52;1750759;81;25959;-85
2021/08/11 01:12:06;;;;;;;9.60;6.35;;;;;;;16.04;75.48;97281.56;1755118;81;27544;-87
2021/08/11 01:14:33;;;;;;;10.50;6.62;;;;;;;16.08;75.50;97274.53;1754951;80;25986;-86
2021/08/11 01:17:02;;;;;;;9.90;6.25;;;;;;;16.09;75.54;97244.87;1758374;80;25798;-89
2021/08/11 01:19:30;;;;;;;12.15;6.92;;;;;;;16.11;75.58;97249.53;1772295;80;26754;-88
2021/08/11 01:22:10;;;;;;;8.90;6.35;;;;;;;16.13;75.52;97265.09;1772447;80;25715;-86
2021/08/11 01:25:04;;;;;;;9.18;6.70;;;;;;;16.14;75.48;97272.72;1772761;80;27353;-84
2021/08/11 01:28:26;;;;;;;10.45;6.22;;;;;;;16.12;75.54;97255.80;1772360;80;25755;-90
2021/08/11 01:31:18;;;;;;;7.65;5.67;;;;;;;16.03;75.57;97264.94;1772694;80;25858;-86
2021/08/11 01:34:08;;;;;;;9.95;6.03;;;;;;;15.97;75.68;97270.00;1709942;83;26007;-87
2021/08/11 01:36:53;;;;;;;12.53;6.47;;;;;;;15.98;75.79;97270.30;1710026;83;26456;-90
2021/08/11 01:39:35;;;;;;;8.68;6.47;;;;;;;15.98;75.85;97277.09;1709985;83;28312;-89
2021/08/11 01:42:12;;;;;;;9.73;5.83;;;;;;;15.88;75.74;97274.76;1709953;83;25935;-86
2021/08/11 01:45:01;;;;;;;10.23;6.22;;;;;;;15.79;75.79;97282.52;1709769;83;25760;-83
2021/08/11 01:47:35;;;;;;;12.58;6.17;;;;;;;15.78;75.96;97275.42;1683145;83;26924;-87
2021/08/11 01:50:03;;;;;;;11.43;6.37;;;;;;;15.79;75.98;97283.34;1698019;83;26857;-86
2021/08/11 01:52:30;;;;;;;8.43;6.05;;;;;;;15.81;76.02;97288.55;1696371;83;27372;-86
2021/08/11 01:54:59;;;;;;;9.35;5.97;;;;;;;15.83;76.09;97298.62;1709822;83;25772;-87
2021/08/11 01:57:25;;;;;;;10.88;6.67;;;;;;;15.81;76.04;97301.63;1709916;83;25900;-87
2021/08/11 01:59:53;;;;;;;8.95;6.00;;;;;;;15.80;76.12;97304.59;1709861;83;25772;-85
2021/08/11 02:02:22;;;;;;;8.53;6.67;;;;;;;15.78;76.14;97302.64;1689757;83;25402;-86
2021/08/11 02:04:48;;;;;;;13.10;6.92;;;;;;;15.75;76.16;97302.59;1709888;83;27441;-87
2021/08/11 02:07:17;;;;;;;10.05;6.95;;;;;;;15.77;76.21;97302.34;1708226;83;25788;-87
2021/08/11 02:09:44;;;;;;;14.00;7.83;;;;;;;15.72;76.20;97296.81;1727376;80;25740;-88
2021/08/11 02:12:11;;;;;;;11.18;6.62;;;;;;;15.60;76.16;97302.86;1741528;80;25802;-89
2021/08/11 02:14:40;;;;;;;11.93;7.10;;;;;;;15.47;76.27;97297.98;1753199;80;25820;-86
2021/08/11 02:17:07;;;;;;;8.95;7.10;;;;;;;15.44;76.48;97293.06;1752548;80;27458;-87
2021/08/11 02:19:34;;;;;;;11.50;6.83;;;;;;;15.47;76.59;97291.19;1752248;80;25788;-88
2021/08/11 02:22:00;;;;;;;13.48;7.35;;;;;;;15.48;76.62;97287.40;1768945;80;26131;-87
2021/08/11 02:24:27;;;;;;;9.18;6.58;;;;;;;15.53;76.70;97284.48;1769401;80;25746;-86
2021/08/11 02:27:04;;;;;;;9.45;7.00;;;;;;;15.47;76.61;97283.03;1757050;79;25832;-87
2021/08/11 02:29:42;;;;;;;14.45;6.87;;;;;;;15.42;76.64;97286.20;1751281;80;27354;-88
2021/08/11 02:32:14;;;;;;;9.80;7.30;;;;;;;15.41;76.77;97289.46;1752221;80;25799;-88
2021/08/11 02:35:04;;;;;;;8.53;6.47;;;;;;;15.40;76.78;97290.53;1740872;80;25795;-86
2021/08/11 02:37:48;;;;;;;10.45;6.42;;;;;;;15.43;76.85;97287.33;1752370;80;25918;-85
2021/08/11 02:40:19;;;;;;;11.68;6.42;;;;;;;15.45;76.80;97291.99;1773857;80;25672;-87
2021/08/11 02:43:06;;;;;;;10.58;6.30;;;;;;;15.44;76.72;97287.62;1752261;80;27355;-88
2021/08/11 02:45:35;;;;;;;8.85;6.75;;;;;;;15.45;76.68;97293.89;1752028;80;25736;-87
2021/08/11 02:48:01;;;;;;;9.68;6.72;;;;;;;15.40;76.75;97295.97;1759629;80;25779;-85
2021/08/11 02:50:28;;;;;;;9.53;6.30;;;;;;;15.38;76.84;97291.30;1761458;80;26861;-87
2021/08/11 02:52:56;;;;;;;8.65;6.40;;;;;;;15.40;76.92;97286.45;1755639;80;25745;-83
2021/08/11 02:55:23;;;;;;;10.00;6.87;;;;;;;15.40;76.95;97286.45;1751950;80;28229;-85
2021/08/11 02:57:51;;;;;;;10.55;6.65;;;;;;;15.44;76.91;97293.59;1752155;80;25266;-81
2021/08/11 03:00:19;;;;;;;12.80;7.03;;;;;;;15.45;76.86;97289.27;1752272;80;25799;-89
2021/08/11 03:02:46;;;;;;;9.88;6.62;;;;;;;15.43;76.89;97285.97;1774169;80;25804;-82
2021/08/11 03:05:13;;;;;;;13.62;7.42;;;;;;;15.32;76.89;97285.50;1752467;80;25467;-85
2021/08/11 03:07:40;;;;;;;11.70;7.50;;;;;;;15.27;77.07;97286.75;1774117;80;27395;-82
2021/08/11 03:10:08;;;;;;;10.35;6.80;;;;;;;15.32;77.24;97284.14;1764700;80;25894;-82
2021/08/11 03:12:36;;;;;;;11.73;6.53;;;;;;;15.35;77.19;97290.42;1760709;80;25740;-87
2021/08/11 03:15:06;;;;;;;12.37;7.12;;;;;;;15.39;77.14;97289.41;1752276;80;26341;-88
2021/08/11 03:17:33;;;;;;;10.48;6.35;;;;;;;15.41;77.10;97298.16;1755421;80;25977;-84
2021/08/11 03:20:00;;;;;;;8.13;6.75;;;;;;;15.42;77.05;97299.27;1772294;80;27448;-83
2021/08/11 03:22:26;;;;;;;12.25;6.83;;;;;;;15.44;77.03;97299.86;1772620;80;25739;-82
2021/08/11 03:24:54;;;;;;;14.93;7.00;;;;;;;15.41;77.00;97300.88;1772616;80;26460;-87
2021/08/11 03:27:21;;;;;;;10.13;6.03;;;;;;;15.34;77.02;97301.01;1772590;80;26566;-82
2021/08/11 03:29:47;;;;;;;9.53;5.85;;;;;;;15.28;77.07;97306.08;1772611;80;25824;-82
2021/08/11 03:32:14;;;;;;;9.65;6.90;;;;;;;15.27;77.27;97311.22;1772719;80;27349;-83
2021/08/11 03:34:40;;;;;;;9.15;6.45;;;;;;;15.31;77.25;97312.39;1772572;80;25913;-83
2021/08/11 03:37:07;;;;;;;9.15;6.22;;;;;;;15.34;77.25;97317.33;1772653;80;25692;-87
2021/08/11 03:39:34;;;;;;;10.88;6.67;;;;;;;15.36;77.23;97308.39;1772594;80;25759;-86
2021/08/11 03:42:00;;;;;;;9.33;6.40;;;;;;;15.35;77.20;97308.10;1772556;80;25945;-83
2021/08/11 03:44:27;;;;;;;8.18;5.75;;;;;;;15.35;77.19;97308.10;1772538;80;28015;-88
2021/08/11 03:46:53;;;;;;;12.53;6.37;;;;;;;15.35;77.18;97313.55;1772441;80;25747;-85
2021/08/11 03:49:20;;;;;;;7.40;6.28;;;;;;;15.37;77.23;97312.77;1762166;80;25684;-85
2021/08/11 03:51:47;;;;;;;11.45;6.42;;;;;;;15.33;77.17;97307.55;1772467;80;25760;-86
2021/08/11 03:54:13;;;;;;;6.97;5.60;;;;;;;15.28;77.12;97306.61;1772673;80;25883;-86
2021/08/11 03:56:40;;;;;;;14.90;6.72;;;;;;;15.26;77.20;97306.84;1772655;80;26648;-85
2021/08/11 03:59:06;;;;;;;10.25;5.75;;;;;;;15.28;77.21;97305.25;1772492;80;25747;-85
2021/08/11 04:01:33;;;;;;;10.90;6.60;;;;;;;15.30;77.13;97307.20;1772446;80;25701;-86
2021/08/11 04:03:59;;;;;;;8.23;5.42;;;;;;;15.28;77.11;97312.88;1772271;80;25749;-86
2021/08/11 04:06:26;;;;;;;9.70;5.67;;;;;;;15.30;77.12;97308.03;1772642;80;26264;-84
2021/08/11 04:08:53;;;;;;;7.17;5.67;;;;;;;15.29;77.11;97309.09;1767463;80;28473;-85
2021/08/11 04:11:19;;;;;;;7.05;5.85;;;;;;;15.27;77.14;97311.22;1772654;80;26356;-85
2021/08/11 04:13:47;;;;;;;9.03;5.50;;;;;;;15.25;77.20;97307.09;1767096;80;25752;-83
2021/08/11 04:16:13;;;;;;;7.78;6.35;;;;;;;15.26;77.20;97306.02;1772522;80;25899;-87
2021/08/11 04:18:40;;;;;;;11.90;6.70;;;;;;;15.27;77.23;97311.75;1772259;80;25955;-85
2021/08/11 04:21:07;;;;;;;11.20;5.80;;;;;;;15.27;77.24;97308.50;1772641;80;27398;-86
2021/08/11 04:23:33;;;;;;;7.53;5.78;;;;;;;15.29;77.24;97313.17;1772473;80;25255;-86
2021/08/11 04:26:00;;;;;;;9.80;5.90;;;;;;;15.29;77.21;97306.38;1764416;80;25668;-86
2021/08/11 04:28:27;;;;;;;9.05;6.30;;;;;;;15.28;77.27;97306.08;1766381;80;26468;-87
2021/08/11 04:30:53;;;;;;;9.58;6.37;;;;;;;15.24;77.29;97306.27;1769628;80;25752;-87
2021/08/11 04:33:20;;;;;;;8.73;6.35;;;;;;;15.23;77.40;97308.69;1767331;80;27306;-86
2021/08/11 04:35:47;;;;;;;10.75;7.90;;;;;;;15.28;77.52;97306.08;1754687;80;25795;-86
2021/08/11 04:38:16;;;;;;;17.12;8.53;;;;;;;15.32;77.66;97315.41;1764691;80;25283;-89
2021/08/11 04:40:42;;;;;;;18.87;9.20;;;;;;;15.36;77.80;97315.20;1762483;80;25691;-88
2021/08/11 04:43:09;;;;;;;12.68;8.38;;;;;;;15.40;77.92;97316.37;1764694;80;25630;-86
2021/08/11 04:45:41;;;;;;;19.67;9.28;;;;;;;15.47;77.91;97319.75;1772345;80;27292;-86
2021/08/11 04:48:08;;;;;;;15.32;10.38;;;;;;;15.53;77.83;97314.41;1759944;80;25931;-86
2021/08/11 04:50:35;;;;;;;16.20;9.75;;;;;;;15.58;77.79;97317.27;1772597;80;26112;-86
2021/08/11 04:53:02;;;;;;;19.75;10.98;;;;;;;15.60;77.75;97319.18;1768676;80;26476;-87
2021/08/11 04:55:29;;;;;;;17.55;10.90;;;;;;;15.64;77.76;97317.63;1772484;80;25848;-87
2021/08/11 04:57:56;;;;;;;15.93;10.28;;;;;;;15.68;77.72;97324.24;1772492;80;28197;-85
2021/08/11 05:00:22;;;;;;;16.67;9.05;;;;;;;15.74;77.65;97324.61;1771618;80;25797;-86
2021/08/11 05:02:49;;;;;;;10.43;7.75;;;;;;;15.79;77.61;97328.25;1772850;80;25230;-87
2021/08/11 05:05:15;;;;;;;10.72;8.10;;;;;;;15.86;77.57;97322.63;1772800;80;25784;-87
2021/08/11 05:07:42;;;;;;;10.18;7.20;;;;;;;15.92;77.66;97327.11;1772716;80;25748;-87
2021/08/11 05:10:10;;;;;;;12.07;8.45;;;;;;;15.94;77.67;97322.22;1772322;80;27434;-87
2021/08/11 05:12:37;;;;;;;11.35;7.05;;;;;;;15.97;77.74;97316.28;1767350;80;25274;-86
2021/08/11 05:15:05;;;;;;;10.82;7.62;;;;;;;16.03;77.72;97324.84;1769603;80;25834;-86
2021/08/11 05:17:32;;;;;;;14.28;8.20;;;;;;;16.07;77.82;97328.69;1772520;80;26468;-85
2021/08/11 05:19:58;;;;;;;12.78;8.20;;;;;;;16.13;77.83;97329.08;1782856;80;25965;-85
2021/08/11 05:22:25;;;;;;;12.50;8.65;;;;;;;16.17;77.76;97335.69;1789284;79;28382;-85
2021/08/11 05:24:52;;;;;;;12.55;7.62;;;;;;;16.24;77.70;97340.95;1785825;80;25859;-85
2021/08/11 05:27:19;;;;;;;11.65;7.80;;;;;;;16.32;77.66;97347.86;1758832;80;25291;-85
2021/08/11 05:29:46;;;;;;;13.05;8.50;;;;;;;16.35;77.67;97343.28;1782382;80;26148;-85
2021/08/11 05:32:15;;;;;;;11.22;7.50;;;;;;;16.39;77.78;97347.17;1767867;78;26307;-82
2021/08/11 05:34:42;;;;;;;10.63;7.95;;;;;;;16.45;77.79;97346.16;1762757;78;27540;-82
2021/08/11 05:37:09;;;;;;;12.13;7.35;;;;;;;16.50;77.98;97338.08;1783204;78;25705;-83
2021/08/11 05:39:36;;;;;;;12.07;7.47;;;;;;;16.54;78.00;97335.14;1780630;78;25736;-84
2021/08/11 05:42:03;;;;;;;10.90;7.15;;;;;;;16.59;77.88;97331.11;1785574;78;25750;-82
2021/08/11 05:44:30;;;;;;;12.13;7.05;;;;;;;16.64;77.79;97331.22;1777143;78;25819;-82
2021/08/11 05:46:56;;;;;;;11.25;6.83;;;;;;;16.69;77.72;97333.17;1770326;78;28239;-82
2021/08/11 05:49:23;;;;;;;11.68;6.83;;;;;;;16.74;77.60;97337.34;1773992;78;25723;-83
2021/08/11 05:51:50;;;;;;;10.53;6.55;;;;;;;16.79;77.53;97337.39;1742182;80;25745;-83
2021/08/11 05:54:16;;;;;;;9.28;6.70;;;;;;;16.83;77.44;97339.38;1713908;81;25802;-83
2021/08/11 05:56:43;;;;;;;10.28;6.72;;;;;;;16.87;77.36;97340.53;1747223;81;25761;-83
2021/08/11 05:59:09;;;;;;;11.90;6.90;;;;;;;16.92;77.23;97340.58;1717834;83;27290;-84
2021/08/11 06:01:36;;;;;;;9.93;6.30;;;;;;;16.98;77.15;97337.93;1725650;81;26497;-83
2021/08/11 06:04:03;;;;;;;9.20;6.58;;;;;;;17.03;77.11;97350.25;1711606;82;26482;-84
2021/08/11 06:06:30;;;;;;;8.30;6.53;;;;;;;17.09;77.16;97337.80;1714376;83;25876;-83
2021/08/11 06:08:57;;;;;;;8.28;7.00;;;;;;;17.17;77.09;97341.97;1748050;81;25724;-83
2021/08/11 06:11:23;;;;;;;11.93;7.42;;;;;;;17.23;76.99;97343.70;1723156;81;27332;-84
2021/08/11 06:13:50;;;;;;;12.20;7.30;;;;;;;17.26;76.80;97334.47;1728445;81;25774;-83
2021/08/11 06:16:17;;;;;;;7.78;6.70;;;;;;;17.33;76.83;97334.25;1735946;81;25700;-83
2021/08/11 06:18:44;;;;;;;11.00;7.40;;;;;;;17.38;76.67;97340.32;1730009;81;25782;-84
2021/08/11 06:21:10;;;;;;;10.60;7.22;;;;;;;17.43;76.67;97338.45;1718312;83;25739;-86
2021/08/11 06:23:37;;;;;;;8.83;6.15;;;;;;;17.47;76.63;97336.05;1703942;84;27586;-85
2021/08/11 06:26:03;;;;;;;8.93;6.30;;;;;;;17.54;76.65;97332.02;1714487;82;25739;-85
2021/08/11 06:28:30;;;;;;;7.47;6.17;;;;;;;17.62;76.62;97334.30;1690686;83;25729;-84
2021/08/11 06:30:57;;;;;;;8.48;6.17;;;;;;;17.73;76.51;97339.89;1704502;82;25830;-82
2021/08/11 06:33:23;;;;;;;9.68;6.62;;;;;;;17.81;76.46;97335.31;1690628;83;25896;-83
2021/08/11 06:35:50;;;;;;;10.98;6.08;;;;;;;17.91;76.32;97329.94;1704714;82;27424;-84
2021/08/11 06:38:17;;;;;;;12.13;6.75;;;;;;;17.99;76.26;97324.02;1690534;83;25727;-83
2021/08/11 06:40:43;;;;;;;10.80;6.47;;;;;;;18.10;76.43;97323.02;1704441;82;26303;-81
2021/08/11 06:43:10;;;;;;;9.98;6.03;;;;;;;18.20;76.35;97329.09;1690403;83;25772;-83
2021/08/11 06:45:37;;;;;;;9.15;6.45;;;;;;;18.29;76.32;97328.34;1704587;82;25734;-83
2021/08/11 06:48:04;;;;;;;9.10;6.17;;;;;;;18.40;76.04;97333.87;1690634;83;26833;-85
2021/08/11 06:50:30;;;;;;;8.53;6.12;;;;;;;18.51;76.04;97332.85;1704438;82;26286;-84
2021/08/11 06:52:57;;;;;;;9.15;5.30;;;;;;;18.60;75.92;97330.75;1703003;83;26274;-84
2021/08/11 06:55:24;;;;;;;7.85;5.80;;;;;;;18.69;75.50;97324.27;1709375;82;25888;-82
2021/08/11 06:57:50;;;;;;;9.90;5.25;;;;;;;18.79;75.50;97328.41;1702703;83;25882;-83
2021/08/11 07:00:18;;;;;;;6.65;5.55;;;;;;;18.93;75.30;97327.39;1719174;82;27024;-82
2021/08/11 07:02:46;;;;;;;6.95;5.87;;;;;;;19.04;75.09;97331.27;1690609;83;25913;-84
2021/08/11 07:05:13;;;;;;;7.20;5.28;;;;;;;19.16;75.10;97329.67;1724193;82;25923;-87
2021/08/11 07:07:40;;;;;;;9.80;5.80;;;;;;;19.27;74.82;97334.64;1704927;82;26515;-86
2021/08/11 07:10:14;;;;;;;8.45;6.30;;;;;;;19.36;74.49;97337.12;1694296;83;25714;-85
2021/08/11 07:12:41;;;;;;;7.40;4.67;;;;;;;19.44;74.53;97340.15;1711348;82;27381;-83
2021/08/11 07:15:09;;;;;;;8.58;4.40;;;;;;;19.54;73.93;97342.15;1717334;82;26448;-87
2021/08/11 07:17:36;;;;;;;7.78;5.08;;;;;;;19.62;73.77;97338.88;1693658;83;25786;-87
2021/08/11 07:20:10;;;;;;;9.20;5.30;;;;;;;19.75;73.74;97336.98;1716705;81;27059;-82
2021/08/11 07:22:37;;;;;;;7.97;4.80;;;;;;;19.87;73.45;97338.09;1723050;81;25785;-86
2021/08/11 07:25:04;;;;;;;7.42;4.45;;;;;;;20.01;73.13;97334.27;1723211;81;27439;-87
2021/08/11 07:27:31;;;;;;;7.05;4.55;;;;;;;20.13;72.73;97341.67;1738640;81;25867;-86
2021/08/11 07:29:58;;;;;;;6.22;4.35;;;;;;;20.23;72.43;97332.63;1740713;81;25785;-84
2021/08/11 07:32:24;;;;;;;8.78;5.00;;;;;;;20.34;72.34;97328.77;1722644;83;26440;-84
2021/08/11 07:34:51;;;;;;;7.40;4.12;;;;;;;20.42;72.12;97326.32;1722954;83;25678;-83
2021/08/11 07:37:17;;;;;;;5.78;4.33;;;;;;;20.56;72.08;97329.87;1723211;81;27537;-84
2021/08/11 07:39:45;;;;;;;6.92;4.40;;;;;;;20.69;71.71;97327.38;1748828;80;25783;-85
2021/08/11 07:42:12;;;;;;;5.92;4.12;;;;;;;20.84;71.20;97323.78;1723855;81;25803;-85
2021/08/11 07:44:38;;;;;;;7.55;4.40;;;;;;;21.02;71.10;97326.45;1731155;81;25681;-85
2021/08/11 07:47:05;;;;;;;8.20;4.42;;;;;;;21.27;70.61;97325.55;1723134;82;25666;-85
2021/08/11 07:49:32;;;;;;;6.53;4.35;;;;;;;21.58;69.70;97329.80;1719162;82;27520;-85
2021/08/11 07:51:59;;;;;;;5.45;4.53;;;;;;;21.90;69.44;97333.42;1720882;83;25795;-85
2021/08/11 07:54:26;;;;;;;7.95;4.75;;;;;;;22.32;69.10;97336.98;1726701;81;38470;-84
2021/08/11 07:56:53;;;;;;;4.58;3.75;;;;;;;22.78;68.42;97336.58;1744193;81;25778;-85
2021/08/11 07:59:19;;;;;;;5.30;4.03;;;;;;;23.21;67.69;97336.89;1740175;81;25955;-85
2021/08/11 08:01:46;;;;;;;4.53;3.77;;;;;;;23.62;67.34;97335.03;1740865;81;28366;-85
2021/08/11 08:04:13;;;;;;;4.58;4.10;;;;;;;24.06;66.25;97343.73;1722806;83;25318;-86
2021/08/11 08:06:39;;;;;;;6.35;4.05;;;;;;;24.44;66.11;97338.74;1738016;81;25714;-86
2021/08/11 08:09:06;;;;;;;6.45;4.12;;;;;;;24.66;65.50;97335.58;1737548;81;26599;-85
2021/08/11 08:11:33;;;;;;;6.00;4.17;;;;;;;24.90;64.95;97336.79;1744477;81;26548;-86
2021/08/11 08:14:00;;;;;;;4.78;3.72;;;;;;;25.03;64.37;97331.88;1748885;81;27612;-86
2021/08/11 08:16:27;;;;;;;5.33;3.90;;;;;;;25.30;63.83;97332.44;1749624;80;25794;-86
2021/08/11 08:18:54;;;;;;;5.58;3.90;;;;;;;25.58;63.21;97336.56;1728684;82;25888;-86
2021/08/11 08:21:20;;;;;;;6.47;3.95;;;;;;;25.76;62.58;97332.30;1708647;83;25824;-85
2021/08/11 08:23:47;;;;;;;10.80;4.50;;;;;;;25.82;62.08;97334.39;1680209;84;25302;-86
2021/08/11 08:26:13;;;;;;;4.75;3.50;;;;;;;25.94;61.81;97326.37;1672751;84;27537;-85
2021/08/11 08:28:42;;;;;;;5.15;3.77;;;;;;;26.14;61.17;97330.59;1710754;83;26202;-87
2021/08/11 08:31:08;;;;;;;5.87;3.98;;;;;;;26.35;60.43;97340.05;1690893;83;25765;-86
2021/08/11 08:33:35;;;;;;;3.67;3.35;;;;;;;26.35;59.89;97333.70;1691407;83;25793;-85
2021/08/11 08:36:01;;;;;;;5.00;3.42;;;;;;;26.41;59.79;97329.69;1691191;83;25655;-86
2021/08/11 08:38:28;;;;;;;5.70;3.77;;;;;;;26.47;59.16;97329.22;1691010;83;27439;-86
2021/08/11 08:40:55;;;;;;;5.08;3.58;;;;;;;26.25;58.75;97328.39;1691001;83;25742;-86
2021/08/11 08:43:22;;;;;;;6.28;3.33;;;;;;;25.88;58.44;97326.78;1690990;83;25733;-86
2021/08/11 08:45:49;;;;;;;4.80;4.00;;;;;;;25.35;58.19;97330.97;1690679;83;25822;-87
2021/08/11 08:48:16;;;;;;;4.85;3.62;;;;;;;24.83;58.38;97331.42;1691112;83;25711;-86
2021/08/11 08:50:46;;;;;;;6.92;3.72;;;;;;;24.62;59.00;97335.13;1691262;83;27566;-86
2021/08/11 08:53:14;;;;;;;6.00;4.17;;;;;;;24.80;59.30;97330.64;1690702;83;25846;-86
2021/08/11 08:55:41;;;;;;;6.42;3.45;;;;;;;25.08;59.57;97329.02;1717178;83;25737;-87
2021/08/11 08:58:07;;;;;;;6.47;3.72;;;;;;;25.47;59.32;97327.12;1694722;83;26410;-85
2021/08/11 09:00:36;;;;;;;4.47;3.75;;;;;;;25.95;58.64;97325.24;1704869;83;25790;-86
2021/08/11 09:03:04;;;;;;;5.70;4.08;;;;;;;26.25;58.29;97321.47;1703456;83;27342;-85
2021/08/11 09:05:31;;;;;;;5.37;3.77;;;;;;;26.69;57.86;97323.41;1697420;83;25710;-85
2021/08/11 09:07:57;;;;;;;6.65;4.20;;;;;;;27.06;57.60;97321.58;1699609;82;25808;-86
2021/08/11 09:10:30;;;;;;;5.72;4.65;;;;;;;27.31;57.17;97323.38;1718149;83;25682;-85
2021/08/11 09:12:59;;;;;;;5.33;3.37;;;;;;;27.56;56.97;97322.09;1714759;83;25774;-85
2021/08/11 09:15:42;;;;;;;8.85;4.30;;;;;;;27.72;55.85;97328.58;1697119;83;27012;-86
2021/08/11 09:18:14;;;;;;;8.10;4.00;;;;;;;27.99;55.24;97326.89;1711596;83;25694;-86
2021/08/11 09:20:46;;;;;;;4.55;3.60;;;;;;;28.34;54.91;97332.46;1732528;82;25869;-86
2021/08/11 09:23:15;;;;;;;8.95;4.37;;;;;;;28.58;54.40;97334.14;1716574;82;25745;-84
2021/08/11 09:26:03;;;;;;;6.45;4.25;;;;;;;28.86;53.65;97331.22;1742825;82;25328;-86
2021/08/11 09:28:33;;;;;;;5.45;3.70;;;;;;;29.05;52.69;97331.42;1719032;82;27320;-85
2021/08/11 09:31:01;;;;;;;5.85;4.12;;;;;;;28.86;51.56;97326.27;1686498;83;25705;-85
2021/08/11 09:33:27;;;;;;;4.45;4.03;;;;;;;28.68;52.28;97329.62;1716473;82;25824;-86
2021/08/11 09:35:55;;;;;;;5.62;3.85;;;;;;;28.72;52.28;97329.22;1724766;82;26501;-86
2021/08/11 09:38:21;;;;;;;4.83;3.83;;;;;;;28.63;51.85;97333.95;1714312;82;25711;-86
2021/08/11 09:40:49;;;;;;;6.97;4.00;;;;;;;28.29;50.98;97337.03;1686539;83;27370;-85
2021/08/11 09:43:33;;;;;;;7.03;4.17;;;;;;;28.00;51.26;97334.08;1728070;82;25765;-86
2021/08/11 09:45:59;;;;;;;4.67;4.17;;;;;;;27.62;51.54;97331.09;1722622;81;25836;-85
2021/08/11 09:48:41;;;;;;;6.10;4.50;;;;;;;27.19;51.53;97343.39;1715965;82;25893;-85
2021/08/11 09:51:10;;;;;;;6.78;4.20;;;;;;;26.76;52.02;97345.38;1686103;83;25882;-85
2021/08/11 09:53:42;;;;;;;7.45;4.35;;;;;;;26.34;52.51;97340.36;1724652;82;28334;-86
2021/08/11 09:56:12;;;;;;;11.08;4.75;;;;;;;26.06;52.90;97341.84;1737133;81;25755;-85
2021/08/11 09:58:46;;;;;;;6.15;4.22;;;;;;;26.03;53.17;97341.64;1734461;81;25619;-85
2021/08/11 10:01:18;;;;;;;5.42;4.00;;;;;;;26.03;53.79;97343.02;1714352;82;25687;-83
2021/08/11 10:04:06;;;;;;;5.55;4.03;;;;;;;26.01;53.72;97341.95;1716457;82;26341;-86
2021/08/11 10:06:35;;;;;;;5.60;4.42;;;;;;;26.20;54.51;97347.33;1716385;82;28356;-85
2021/08/11 10:09:25;;;;;;;5.05;4.45;;;;;;;26.42;54.06;97345.98;1716734;82;25840;-84
2021/08/11 10:11:59;;;;;;;6.83;4.37;;;;;;;26.27;53.44;97349.08;1737432;82;25887;-85
2021/08/11 10:14:31;;;;;;;5.40;4.50;;;;;;;25.89;53.47;97362.42;1728805;81;26444;-84
2021/08/11 10:17:00;;;;;;;11.00;4.70;;;;;;;25.64;53.76;97362.98;1716762;82;25730;-85
2021/08/11 10:19:31;;;;;;;6.90;4.42;;;;;;;25.46;54.36;97355.87;1737576;82;27375;-85
2021/08/11 10:22:05;;;;;;;6.97;4.58;;;;;;;25.48;54.54;97362.45;1729985;81;26413;-84
2021/08/11 10:24:32;;;;;;;6.50;4.10;;;;;;;25.40;54.40;97362.61;1709664;82;25285;-84
2021/08/11 10:27:00;;;;;;;6.85;4.70;;;;;;;25.30;54.88;97363.39;1711459;83;26379;-84
2021/08/11 10:29:27;;;;;;;5.70;4.65;;;;;;;25.34;55.35;97355.57;1709811;82;25780;-85
2021/08/11 10:31:54;;;;;;;5.97;4.97;;;;;;;25.45;55.30;97354.23;1704902;82;28264;-84
2021/08/11 10:34:24;;;;;;;7.97;4.67;;;;;;;25.70;55.56;97358.99;1723736;81;25257;-84
2021/08/11 10:36:50;;;;;;;5.00;4.25;;;;;;;26.03;55.16;97354.91;1712156;82;25875;-86
2021/08/11 10:39:19;;;;;;;9.38;4.72;;;;;;;26.32;54.90;97353.72;1737177;82;25742;-86
2021/08/11 10:41:46;;;;;;;7.28;4.78;;;;;;;26.57;54.07;97344.75;1736113;82;25753;-87
2021/08/11 10:44:22;;;;;;;8.90;4.78;;;;;;;26.74;53.29;97351.78;1738095;81;28699;-85
2021/08/11 10:46:55;;;;;;;4.70;4.05;;;;;;;26.51;52.19;97343.26;1734038;82;25803;-85
2021/08/11 10:49:24;;;;;;;6.28;4.30;;;;;;;26.56;52.43;97345.91;1710023;82;26097;-85
2021/08/11 10:51:50;;;;;;;6.08;4.15;;;;;;;26.49;52.44;97353.82;1722223;82;26487;-88
2021/08/11 10:54:18;;;;;;;14.00;4.30;;;;;;;26.41;52.07;97358.73;1717743;82;25754;-85
2021/08/11 10:56:53;;;;;;;6.20;4.28;;;;;;;26.42;51.72;97349.31;1710011;82;28891;-86
2021/08/11 10:59:29;;;;;;;10.88;4.90;;;;;;;26.58;51.88;97351.92;1721817;82;25669;-84
2021/08/11 11:01:57;;;;;;;6.08;4.35;;;;;;;26.79;51.46;97357.20;1729285;82;26603;-84
2021/08/11 11:04:49;;;;;;;6.85;4.33;;;;;;;26.93;51.32;97353.56;1737286;82;26443;-84
2021/08/11 11:07:18;;;;;;;6.30;4.67;;;;;;;26.94;50.63;97349.06;1737668;82;25801;-85
2021/08/11 11:09:47;;;;;;;6.53;3.77;;;;;;;27.00;50.17;97339.49;1739096;81;28886;-85
2021/08/11 11:12:22;;;;;;;4.62;3.87;;;;;;;27.01;50.24;97337.55;1717869;82;25296;-86
2021/08/11 11:14:56;;;;;;;7.80;4.42;;;;;;;27.08;49.88;97340.66;1718611;82;25771;-85
2021/08/11 11:17:28;;;;;;;6.58;4.10;;;;;;;26.92;50.42;97342.20;1717432;82;25888;-86
2021/08/11 11:20:10;;;;;;;6.70;3.83;;;;;;;26.84;50.48;97334.90;1730782;82;25733;-86
2021/08/11 11:22:44;;;;;;;7.30;4.17;;;;;;;26.97;50.27;97342.08;1727984;82;27408;-85
2021/08/11 11:25:18;;;;;;;7.28;3.90;;;;;;;26.81;49.80;97331.38;1732491;82;25942;-86
2021/08/11 11:27:52;;;;;;;6.08;3.95;;;;;;;26.73;50.12;97345.17;1710065;82;25825;-85
2021/08/11 11:30:33;;;;;;;7.37;4.33;;;;;;;26.79;49.68;97339.20;1710089;82;26103;-93
2021/08/11 11:33:30;;;;;;;7.17;4.40;;;;;;;26.76;49.70;97342.60;1709832;82;25915;-88
2021/08/11 11:36:21;;;;;;;7.35;4.67;;;;;;;26.81;49.96;97347.17;1700647;83;27547;-88
2021/08/11 11:39:07;;;;;;;7.70;3.95;;;;;;;26.95;50.10;97349.88;1708189;83;25828;-87